createdAt,value
2019-01-29T00:04:58.756Z,99217.08
2019-01-29T00:10:00.967Z,99210.38
2019-01-29T00:15:04.617Z,99225.27
2019-01-29T00:20:07.555Z,99225.16
2019-01-29T00:25:10.220Z,99230.59
2019-01-29T00:30:13.213Z,99236.27
2019-01-29T00:35:15.498Z,99242.33
2019-01-29T00:40:18.473Z,99252.55
2019-01-29T00:45:21.496Z,99262.90
2019-01-29T00:50:23.840Z,99261.27
2019-01-29T00:55:26.268Z,99271.18
2019-01-29T01:00:28.588Z,99285.97
2019-01-29T01:05:31.265Z,99295.42
2019-01-29T01:10:34.361Z,99299.92
2019-01-29T01:15:37.143Z,99316.00
2019-01-29T01:20:39.961Z,99320.20
2019-01-29T01:25:42.456Z,99324.67
2019-01-29T01:30:44.652Z,99336.98
2019-01-29T01:35:47.735Z,99346.78
2019-01-29T01:40:50.478Z,99347.53
2019-01-29T01:45:53.029Z,99353.20
2019-01-29T01:50:55.605Z,99353.13
2019-01-29T01:55:58.622Z,99367.79
2019-01-29T02:01:01.630Z,99382.94
2019-01-29T02:06:04.489Z,99395.23
2019-01-29T02:11:06.783Z,99407.25
2019-01-29T02:16:10.090Z,99416.50
2019-01-29T02:21:12.463Z,99424.02
2019-01-29T02:26:14.663Z,99433.01
2019-01-29T02:31:17.596Z,99441.91
2019-01-29T02:36:20.710Z,99449.48
2019-01-29T02:41:23.445Z,99467.27
2019-01-29T02:46:26.042Z,99463.23
2019-01-29T02:51:28.400Z,99480.77
2019-01-29T02:56:30.956Z,99481.92
2019-01-29T03:01:33.313Z,99488.31
2019-01-29T03:06:35.767Z,99497.68
2019-01-29T03:11:38.067Z,99507.63
2019-01-29T03:16:40.480Z,99529.15
2019-01-29T03:21:42.703Z,99538.97
2019-01-29T03:26:45.631Z,99543.83
2019-01-29T03:31:49.037Z,99548.75
2019-01-29T03:36:51.856Z,99566.78
2019-01-29T03:41:54.154Z,99573.81
2019-01-29T03:46:56.385Z,99578.27
2019-01-29T03:51:59.309Z,99588.60
2019-01-29T03:57:01.504Z,99599.48
2019-01-29T04:02:04.047Z,99606.89
2019-01-29T04:07:06.340Z,99610.80
2019-01-29T04:12:08.859Z,99621.74
2019-01-29T04:17:11.971Z,99626.58
2019-01-29T04:22:14.396Z,99635.84
2019-01-29T04:27:16.845Z,99644.38
2019-01-29T04:32:19.150Z,99648.15
2019-01-29T04:37:21.519Z,99658.47
2019-01-29T04:42:23.739Z,99662.59
2019-01-29T04:47:26.005Z,99664.63
2019-01-29T04:52:28.361Z,99682.11
2019-01-29T04:57:30.749Z,99692.23
2019-01-29T05:02:33.052Z,99695.66
2019-01-29T05:07:35.525Z,99699.20
2019-01-29T05:12:37.876Z,99705.88
2019-01-29T05:17:40.209Z,99705.05
2019-01-29T05:22:42.499Z,99715.84
2019-01-29T05:27:45.198Z,99727.04
2019-01-29T05:32:48.115Z,99734.48
2019-01-29T05:37:50.776Z,99738.92
2019-01-29T05:42:53.306Z,99756.23
2019-01-29T05:47:56.069Z,99751.05
2019-01-29T05:52:58.496Z,99759.38
2019-01-29T05:58:00.719Z,99766.23
2019-01-29T06:03:03.446Z,99770.16
2019-01-29T06:08:06.243Z,99781.02
2019-01-29T06:13:08.478Z,99788.97
2019-01-29T06:18:11.787Z,99793.44
2019-01-29T06:23:14.350Z,99810.00
2019-01-29T06:28:18.662Z,99817.87
2019-01-29T06:33:21.613Z,99823.83
2019-01-29T06:38:23.970Z,99839.55
2019-01-29T06:43:28.118Z,99850.84
2019-01-29T06:48:30.439Z,99864.66
2019-01-29T06:53:32.680Z,99877.18
2019-01-29T06:58:35.494Z,99874.67
2019-01-29T07:03:37.827Z,99889.84
2019-01-29T07:08:40.198Z,99893.92
2019-01-29T07:13:42.507Z,99905.48
2019-01-29T07:19:03.205Z,99913.94
2019-01-29T07:24:05.901Z,99919.02
2019-01-29T07:29:08.866Z,99921.38
2019-01-29T07:34:11.879Z,99920.02
2019-01-29T07:39:14.199Z,99924.52
2019-01-29T07:44:16.536Z,99925.39
2019-01-29T07:49:19.448Z,99932.02
2019-01-29T07:54:22.122Z,99935.25
2019-01-29T07:59:32.956Z,99938.97
2019-01-29T08:04:30.180Z,99942.52
2019-01-29T08:09:33.001Z,99948.52
2019-01-29T08:14:35.684Z,99955.91
2019-01-29T08:19:38.405Z,99965.48
2019-01-29T08:24:42.202Z,99963.06
2019-01-29T08:29:44.791Z,99972.91
2019-01-29T08:34:47.384Z,99983.11
2019-01-29T08:39:50.063Z,99988.06
2019-01-29T08:44:52.775Z,99991.47
2019-01-29T08:49:55.249Z,99993.19
2019-01-29T08:54:57.784Z,100002.47
2019-01-29T09:00:02.600Z,100007.81
2019-01-29T09:05:07.539Z,100014.54
2019-01-29T09:10:13.179Z,100012.89
2019-01-29T09:15:16.063Z,100012.06
2019-01-29T09:20:19.334Z,100011.17
2019-01-29T09:25:22.927Z,100020.36
2019-01-29T09:30:25.473Z,100021.78
2019-01-29T09:35:27.721Z,100025.44
2019-01-29T09:40:30.918Z,100036.52
2019-01-29T09:45:33.384Z,100040.10
2019-01-29T09:50:36.145Z,100052.39
2019-01-29T09:55:38.985Z,100052.64
2019-01-29T10:00:41.687Z,100049.47
2019-01-29T10:05:43.980Z,100051.28
2019-01-29T10:10:46.776Z,100052.77
2019-01-29T10:15:49.129Z,100055.73
2019-01-29T10:20:53.808Z,100053.55
2019-01-29T10:25:56.494Z,100057.59
2019-01-29T10:30:59.126Z,100053.89
2019-01-29T10:36:01.573Z,100055.61
2019-01-29T10:41:04.286Z,100050.59
2019-01-29T10:46:06.978Z,100051.84
2019-01-29T10:51:09.583Z,100053.77
2019-01-29T10:56:16.207Z,100059.22
2019-01-29T11:01:21.693Z,100052.66
2019-01-29T11:06:24.699Z,100052.66
2019-01-29T11:11:27.673Z,100059.47
2019-01-29T11:16:30.733Z,100050.48
2019-01-29T11:21:33.885Z,100057.69
2019-01-29T11:26:36.422Z,100054.08
2019-01-29T11:31:39.074Z,100045.73
2019-01-29T11:36:42.053Z,100050.48
2019-01-29T11:41:44.518Z,100054.39
2019-01-29T11:46:47.314Z,100050.73
2019-01-29T11:51:49.611Z,100059.02
2019-01-29T11:56:52.750Z,100067.48
2019-01-29T12:01:56.705Z,100072.51
2019-01-29T12:06:59.258Z,100066.73
2019-01-29T12:12:01.583Z,100064.36
2019-01-29T12:17:03.903Z,100060.86
2019-01-29T12:22:09.615Z,100065.55
2019-01-29T12:27:12.048Z,100061.00
2019-01-29T12:32:14.314Z,100060.89
2019-01-29T12:37:23.441Z,100060.98
2019-01-29T12:42:35.735Z,100055.19
2019-01-29T12:47:39.942Z,100056.56
2019-01-29T13:01:15.328Z,100053.00
2019-01-29T13:06:11.420Z,100055.73
2019-01-29T13:11:13.983Z,100055.74
2019-01-29T13:16:16.355Z,100040.34
2019-01-29T13:21:21.369Z,100041.69
2019-01-29T13:26:29.936Z,100038.84
2019-01-29T13:31:28.513Z,100045.73
2019-01-29T13:36:31.223Z,100044.73
2019-01-29T13:41:35.508Z,100049.27
2019-01-29T13:46:37.732Z,100049.59
2019-01-29T13:51:40.581Z,100045.95
2019-01-29T13:56:43.448Z,100048.06
2019-01-29T14:01:45.807Z,100049.78
2019-01-29T14:06:48.420Z,100045.73
2019-01-29T14:11:51.015Z,100045.31
2019-01-29T14:16:53.891Z,100048.53
2019-01-29T14:21:56.110Z,100048.70
2019-01-29T14:26:58.976Z,100050.72
2019-01-29T14:32:01.881Z,100048.75
2019-01-29T14:37:04.385Z,100050.66
2019-01-29T14:42:06.667Z,100053.38
2019-01-29T14:47:09.346Z,100055.16
2019-01-29T14:52:11.904Z,100053.77
2019-01-29T14:57:14.625Z,100049.61
2019-01-29T15:02:17.436Z,100051.81
2019-01-29T15:07:19.956Z,100057.62
2019-01-29T15:12:22.429Z,100051.96
2019-01-29T15:17:50.423Z,100048.38
2019-01-29T15:22:53.872Z,100050.42
2019-01-29T15:27:56.724Z,100056.29
2019-01-29T15:32:59.448Z,100056.23
2019-01-29T15:38:02.290Z,100051.38
2019-01-29T15:43:04.843Z,100052.44
2019-01-29T15:48:07.282Z,100049.02
2019-01-29T15:53:10.715Z,100052.94
2019-01-29T15:58:13.809Z,100044.09
2019-01-29T16:03:16.608Z,100053.48
2019-01-29T16:08:18.946Z,100052.17
2019-01-29T16:13:21.415Z,100056.77
2019-01-29T16:18:23.860Z,100058.77
2019-01-29T16:23:26.605Z,100062.30
2019-01-29T16:28:29.378Z,100064.19
2019-01-29T16:33:31.847Z,100072.20
2019-01-29T16:38:34.462Z,100070.91
2019-01-29T16:43:37.048Z,100068.05
2019-01-29T16:48:39.846Z,100068.88
2019-01-29T16:53:42.448Z,100074.09
2019-01-29T16:58:45.044Z,100071.64
2019-01-29T17:03:47.753Z,100071.16
2019-01-29T17:08:50.219Z,100066.94
2019-01-29T17:13:52.374Z,100074.33
2019-01-29T17:18:54.918Z,100073.04
2019-01-29T17:23:57.821Z,100068.67
2019-01-29T17:29:00.157Z,100076.51
2019-01-29T17:34:02.392Z,100075.82
2019-01-29T17:39:07.478Z,100076.66
2019-01-29T17:44:11.073Z,100072.86
2019-01-29T17:49:13.967Z,100073.84
2019-01-29T17:54:16.206Z,100080.66
2019-01-29T17:59:18.725Z,100074.44
2019-01-29T18:04:21.216Z,100076.03
2019-01-29T18:09:23.610Z,100081.05
2019-01-29T18:14:26.413Z,100073.01
2019-01-29T18:19:28.758Z,100071.57
2019-01-29T18:24:31.337Z,100075.07
2019-01-29T18:29:34.169Z,100078.39
2019-01-29T18:34:36.747Z,100071.91
2019-01-29T18:39:39.467Z,100068.11
2019-01-29T18:44:42.109Z,100066.38
2019-01-29T18:49:44.690Z,100061.56
2019-01-29T18:54:47.114Z,100059.22
2019-01-29T18:59:49.677Z,100058.50
2019-01-29T19:04:52.000Z,100058.06
2019-01-29T19:09:54.854Z,100060.78
2019-01-29T19:14:57.554Z,100050.55
2019-01-29T19:20:00.522Z,100061.83
2019-01-29T19:25:04.226Z,100045.56
2019-01-29T19:30:14.688Z,100050.02
2019-01-29T19:35:17.706Z,100044.03
2019-01-29T19:40:20.488Z,100053.28
2019-01-29T19:45:29.862Z,100046.84
2019-01-29T19:50:32.529Z,100049.87
2019-01-29T19:55:37.894Z,100046.84
2019-01-29T20:00:41.907Z,100043.44
2019-01-29T20:05:44.140Z,100045.17
2019-01-29T20:10:46.477Z,100043.50
2019-01-29T20:15:49.460Z,100044.34
2019-01-29T20:20:52.534Z,100045.41
2019-01-29T20:25:55.479Z,100036.17
2019-01-29T20:30:57.961Z,100034.73
2019-01-29T20:36:00.172Z,100041.28
2019-01-29T20:41:03.004Z,100032.29
2019-01-29T20:46:05.670Z,100038.59
2019-01-29T20:51:08.455Z,100036.83
2019-01-29T20:56:10.814Z,100031.13
2019-01-29T21:01:13.714Z,100032.41
2019-01-29T21:06:16.181Z,100035.94
2019-01-29T21:11:19.061Z,100038.00
2019-01-29T21:16:21.595Z,100030.34
2019-01-29T21:21:24.203Z,100027.92
2019-01-29T21:26:26.723Z,100024.28
2019-01-29T21:31:29.028Z,100027.71
2019-01-29T21:36:31.472Z,100022.45
2019-01-29T21:41:34.272Z,100017.52
2019-01-29T21:46:36.498Z,100020.37
2019-01-29T21:51:38.791Z,100018.40
2019-01-29T21:56:41.264Z,100019.16
2019-01-29T22:01:43.468Z,100015.01
2019-01-29T22:06:46.319Z,100011.30
2019-01-29T22:11:48.914Z,100007.89
2019-01-29T22:16:51.202Z,100004.94
2019-01-29T22:21:53.503Z,99994.36
2019-01-29T22:26:55.715Z,99990.70
2019-01-29T22:31:58.887Z,99985.69
2019-01-29T22:37:02.063Z,99978.81
2019-01-29T22:42:04.494Z,99974.97
2019-01-29T22:47:06.724Z,99973.23
2019-01-29T22:52:09.533Z,99967.80
2019-01-29T22:57:11.717Z,99969.58
2019-01-29T23:02:14.583Z,99980.20
2019-01-29T23:07:30.092Z,99971.77
2019-01-29T23:12:32.589Z,99967.67
2019-01-29T23:17:36.313Z,99965.75
2019-01-29T23:22:38.629Z,99959.81
2019-01-29T23:27:42.047Z,99958.14
2019-01-29T23:32:44.640Z,99952.12
2019-01-29T23:37:47.505Z,99952.12
2019-01-29T23:42:49.997Z,99948.22
2019-01-29T23:48:01.367Z,99947.71
2019-01-29T23:53:03.908Z,99945.34
2019-01-29T23:58:06.410Z,99942.63
